sensor_id;sensor_type;location;lat;lon;timestamp;P1;durP1;ratioP1;P2;durP2;ratioP2
5343;SDS011;2694;48.954;8.928;2023-08-08T00:01:59;2.50;;;1.05;;
5343;SDS011;2694;48.954;8.928;2023-08-08T00:04:26;3.20;;;1.30;;
5343;SDS011;2694;48.954;8.928;2023-08-08T00:06:53;3.30;;;1.20;;
5343;SDS011;2694;48.954;8.928;2023-08-08T00:09:19;3.03;;;1.10;;
5343;SDS011;2694;48.954;8.928;2023-08-08T00:11:46;5.20;;;1.20;;
5343;SDS011;2694;48.954;8.928;2023-08-08T00:14:15;5.93;;;1.40;;
5343;SDS011;2694;48.954;8.928;2023-08-08T00:16:42;2.90;;;1.10;;
5343;SDS011;2694;48.954;8.928;2023-08-08T00:19:09;1.50;;;0.90;;
5343;SDS011;2694;48.954;8.928;2023-08-08T00:21:36;2.55;;;1.20;;
5343;SDS011;2694;48.954;8.928;2023-08-08T00:24:03;2.70;;;1.20;;
5343;SDS011;2694;48.954;8.928;2023-08-08T00:26:31;3.00;;;1.30;;
5343;SDS011;2694;48.954;8.928;2023-08-08T00:28:58;2.83;;;1.40;;
5343;SDS011;2694;48.954;8.928;2023-08-08T00:31:26;5.70;;;1.50;;
5343;SDS011;2694;48.954;8.928;2023-08-08T00:33:53;2.00;;;1.10;;
5343;SDS011;2694;48.954;8.928;2023-08-08T00:36:20;2.35;;;1.02;;
5343;SDS011;2694;48.954;8.928;2023-08-08T00:38:47;2.83;;;1.50;;
5343;SDS011;2694;48.954;8.928;2023-08-08T00:41:14;2.83;;;1.00;;
5343;SDS011;2694;48.954;8.928;2023-08-08T00:43:41;4.10;;;1.13;;
5343;SDS011;2694;48.954;8.928;2023-08-08T00:46:08;2.58;;;1.40;;
5343;SDS011;2694;48.954;8.928;2023-08-08T00:48:39;2.72;;;0.80;;
5343;SDS011;2694;48.954;8.928;2023-08-08T00:51:06;1.73;;;1.00;;
5343;SDS011;2694;48.954;8.928;2023-08-08T00:53:33;5.88;;;1.50;;
5343;SDS011;2694;48.954;8.928;2023-08-08T00:56:00;2.40;;;1.20;;
5343;SDS011;2694;48.954;8.928;2023-08-08T00:58:27;3.58;;;1.50;;
5343;SDS011;2694;48.954;8.928;2023-08-08T01:00:54;2.60;;;1.35;;
5343;SDS011;2694;48.954;8.928;2023-08-08T01:03:24;2.60;;;1.40;;
5343;SDS011;2694;48.954;8.928;2023-08-08T01:05:57;4.10;;;1.10;;
5343;SDS011;2694;48.954;8.928;2023-08-08T01:08:31;3.60;;;1.30;;
5343;SDS011;2694;48.954;8.928;2023-08-08T01:11:01;3.80;;;1.30;;
5343;SDS011;2694;48.954;8.928;2023-08-08T01:13:30;3.17;;;1.10;;
5343;SDS011;2694;48.954;8.928;2023-08-08T01:15:58;5.00;;;1.20;;
5343;SDS011;2694;48.954;8.928;2023-08-08T01:18:28;4.18;;;1.35;;
5343;SDS011;2694;48.954;8.928;2023-08-08T01:20:57;2.13;;;1.00;;
5343;SDS011;2694;48.954;8.928;2023-08-08T01:23:26;2.50;;;1.30;;
5343;SDS011;2694;48.954;8.928;2023-08-08T01:25:58;3.00;;;1.30;;
5343;SDS011;2694;48.954;8.928;2023-08-08T01:28:25;2.42;;;1.10;;
5343;SDS011;2694;48.954;8.928;2023-08-08T01:30:52;2.70;;;1.50;;
5343;SDS011;2694;48.954;8.928;2023-08-08T01:33:20;4.60;;;1.20;;
5343;SDS011;2694;48.954;8.928;2023-08-08T01:35:52;3.25;;;1.40;;
5343;SDS011;2694;48.954;8.928;2023-08-08T01:38:23;2.05;;;1.20;;
5343;SDS011;2694;48.954;8.928;2023-08-08T01:40:58;3.17;;;1.10;;
5343;SDS011;2694;48.954;8.928;2023-08-08T01:43:26;3.03;;;1.30;;
5343;SDS011;2694;48.954;8.928;2023-08-08T01:45:54;1.55;;;1.02;;
5343;SDS011;2694;48.954;8.928;2023-08-08T01:48:22;3.65;;;1.30;;
5343;SDS011;2694;48.954;8.928;2023-08-08T01:50:49;4.32;;;1.27;;
5343;SDS011;2694;48.954;8.928;2023-08-08T01:53:16;1.80;;;0.90;;
5343;SDS011;2694;48.954;8.928;2023-08-08T01:55:43;2.13;;;1.10;;
5343;SDS011;2694;48.954;8.928;2023-08-08T01:58:11;2.85;;;1.33;;
5343;SDS011;2694;48.954;8.928;2023-08-08T02:00:38;1.67;;;1.00;;
5343;SDS011;2694;48.954;8.928;2023-08-08T02:03:06;2.75;;;1.10;;
5343;SDS011;2694;48.954;8.928;2023-08-08T02:05:33;3.08;;;1.40;;
5343;SDS011;2694;48.954;8.928;2023-08-08T02:08:00;2.58;;;1.30;;
5343;SDS011;2694;48.954;8.928;2023-08-08T02:10:27;2.47;;;1.17;;
5343;SDS011;2694;48.954;8.928;2023-08-08T02:12:57;4.40;;;1.70;;
5343;SDS011;2694;48.954;8.928;2023-08-08T02:15:26;4.85;;;1.35;;
5343;SDS011;2694;48.954;8.928;2023-08-08T02:17:53;2.53;;;1.30;;
5343;SDS011;2694;48.954;8.928;2023-08-08T02:20:20;4.30;;;1.00;;
5343;SDS011;2694;48.954;8.928;2023-08-08T02:22:47;1.90;;;1.27;;
5343;SDS011;2694;48.954;8.928;2023-08-08T02:25:14;6.95;;;1.20;;
5343;SDS011;2694;48.954;8.928;2023-08-08T02:27:41;4.33;;;1.20;;
5343;SDS011;2694;48.954;8.928;2023-08-08T02:30:08;2.40;;;1.00;;
5343;SDS011;2694;48.954;8.928;2023-08-08T02:32:37;3.00;;;1.20;;
5343;SDS011;2694;48.954;8.928;2023-08-08T02:35:04;2.20;;;1.30;;
5343;SDS011;2694;48.954;8.928;2023-08-08T02:37:32;3.55;;;1.15;;
5343;SDS011;2694;48.954;8.928;2023-08-08T02:39:58;3.60;;;1.25;;
5343;SDS011;2694;48.954;8.928;2023-08-08T02:42:25;3.20;;;1.40;;
5343;SDS011;2694;48.954;8.928;2023-08-08T02:44:52;2.40;;;1.10;;
5343;SDS011;2694;48.954;8.928;2023-08-08T02:47:19;2.50;;;1.40;;
5343;SDS011;2694;48.954;8.928;2023-08-08T02:49:48;5.90;;;1.50;;
5343;SDS011;2694;48.954;8.928;2023-08-08T02:52:14;1.70;;;1.13;;
5343;SDS011;2694;48.954;8.928;2023-08-08T02:54:41;2.10;;;1.40;;
5343;SDS011;2694;48.954;8.928;2023-08-08T02:57:08;5.95;;;1.40;;
5343;SDS011;2694;48.954;8.928;2023-08-08T02:59:37;2.13;;;1.02;;
5343;SDS011;2694;48.954;8.928;2023-08-08T03:02:04;3.28;;;1.20;;
5343;SDS011;2694;48.954;8.928;2023-08-08T03:04:31;2.88;;;1.60;;
5343;SDS011;2694;48.954;8.928;2023-08-08T03:06:59;3.58;;;1.48;;
5343;SDS011;2694;48.954;8.928;2023-08-08T03:09:29;2.25;;;1.30;;
5343;SDS011;2694;48.954;8.928;2023-08-08T03:11:56;1.80;;;1.00;;
5343;SDS011;2694;48.954;8.928;2023-08-08T03:14:23;2.90;;;1.42;;
5343;SDS011;2694;48.954;8.928;2023-08-08T03:16:49;3.90;;;1.60;;
5343;SDS011;2694;48.954;8.928;2023-08-08T03:19:16;2.00;;;1.10;;
5343;SDS011;2694;48.954;8.928;2023-08-08T03:21:43;2.80;;;1.30;;
5343;SDS011;2694;48.954;8.928;2023-08-08T03:24:12;2.03;;;1.30;;
5343;SDS011;2694;48.954;8.928;2023-08-08T03:26:39;3.50;;;1.40;;
5343;SDS011;2694;48.954;8.928;2023-08-08T03:29:05;4.25;;;1.20;;
5343;SDS011;2694;48.954;8.928;2023-08-08T03:31:35;6.47;;;1.52;;
5343;SDS011;2694;48.954;8.928;2023-08-08T03:34:02;2.45;;;1.40;;
5343;SDS011;2694;48.954;8.928;2023-08-08T03:36:29;1.92;;;1.13;;
5343;SDS011;2694;48.954;8.928;2023-08-08T03:38:56;2.60;;;1.20;;
5343;SDS011;2694;48.954;8.928;2023-08-08T03:41:24;3.58;;;1.60;;
5343;SDS011;2694;48.954;8.928;2023-08-08T03:43:51;3.83;;;1.40;;
5343;SDS011;2694;48.954;8.928;2023-08-08T03:46:18;4.63;;;1.30;;
5343;SDS011;2694;48.954;8.928;2023-08-08T03:48:45;1.65;;;1.02;;
5343;SDS011;2694;48.954;8.928;2023-08-08T03:51:12;2.50;;;1.23;;
5343;SDS011;2694;48.954;8.928;2023-08-08T03:53:39;2.70;;;1.20;;
5343;SDS011;2694;48.954;8.928;2023-08-08T03:56:06;4.90;;;1.30;;
5343;SDS011;2694;48.954;8.928;2023-08-08T03:58:35;2.40;;;1.40;;
5343;SDS011;2694;48.954;8.928;2023-08-08T04:01:03;6.07;;;1.50;;
5343;SDS011;2694;48.954;8.928;2023-08-08T04:03:30;4.35;;;1.40;;
5343;SDS011;2694;48.954;8.928;2023-08-08T04:05:57;2.58;;;1.33;;
5343;SDS011;2694;48.954;8.928;2023-08-08T04:08:24;3.08;;;1.60;;
5343;SDS011;2694;48.954;8.928;2023-08-08T04:10:51;3.17;;;1.23;;
5343;SDS011;2694;48.954;8.928;2023-08-08T04:13:19;4.65;;;1.30;;
5343;SDS011;2694;48.954;8.928;2023-08-08T04:15:47;5.18;;;1.40;;
5343;SDS011;2694;48.954;8.928;2023-08-08T04:18:16;3.00;;;1.40;;
5343;SDS011;2694;48.954;8.928;2023-08-08T04:20:44;3.78;;;1.40;;
5343;SDS011;2694;48.954;8.928;2023-08-08T04:23:12;2.65;;;1.40;;
5343;SDS011;2694;48.954;8.928;2023-08-08T04:25:39;5.70;;;1.83;;
5343;SDS011;2694;48.954;8.928;2023-08-08T04:28:05;3.65;;;1.50;;
5343;SDS011;2694;48.954;8.928;2023-08-08T04:30:32;3.08;;;1.75;;
5343;SDS011;2694;48.954;8.928;2023-08-08T04:33:01;2.15;;;1.30;;
5343;SDS011;2694;48.954;8.928;2023-08-08T04:35:28;3.20;;;1.33;;
5343;SDS011;2694;48.954;8.928;2023-08-08T04:37:55;2.50;;;1.50;;
5343;SDS011;2694;48.954;8.928;2023-08-08T04:40:22;2.40;;;1.30;;
5343;SDS011;2694;48.954;8.928;2023-08-08T04:42:49;2.97;;;1.40;;
5343;SDS011;2694;48.954;8.928;2023-08-08T04:45:17;1.70;;;1.02;;
5343;SDS011;2694;48.954;8.928;2023-08-08T04:47:44;3.25;;;1.10;;
5343;SDS011;2694;48.954;8.928;2023-08-08T04:50:12;3.20;;;1.38;;
5343;SDS011;2694;48.954;8.928;2023-08-08T04:52:39;3.35;;;1.20;;
5343;SDS011;2694;48.954;8.928;2023-08-08T04:55:06;3.85;;;1.20;;
5343;SDS011;2694;48.954;8.928;2023-08-08T04:57:33;2.70;;;1.40;;
5343;SDS011;2694;48.954;8.928;2023-08-08T05:00:00;2.95;;;1.48;;
5343;SDS011;2694;48.954;8.928;2023-08-08T05:02:30;5.80;;;1.65;;
5343;SDS011;2694;48.954;8.928;2023-08-08T05:04:57;2.15;;;1.30;;
5343;SDS011;2694;48.954;8.928;2023-08-08T05:07:25;5.00;;;1.45;;
5343;SDS011;2694;48.954;8.928;2023-08-08T05:09:52;2.08;;;1.20;;
5343;SDS011;2694;48.954;8.928;2023-08-08T05:12:19;4.53;;;1.83;;
5343;SDS011;2694;48.954;8.928;2023-08-08T05:14:46;5.30;;;1.85;;
5343;SDS011;2694;48.954;8.928;2023-08-08T05:17:13;3.50;;;1.30;;
5343;SDS011;2694;48.954;8.928;2023-08-08T05:19:40;3.42;;;1.90;;
5343;SDS011;2694;48.954;8.928;2023-08-08T05:22:07;4.20;;;1.60;;
5343;SDS011;2694;48.954;8.928;2023-08-08T05:24:35;5.60;;;1.90;;
5343;SDS011;2694;48.954;8.928;2023-08-08T05:27:02;3.00;;;1.58;;
5343;SDS011;2694;48.954;8.928;2023-08-08T05:29:29;6.00;;;1.40;;
5343;SDS011;2694;48.954;8.928;2023-08-08T05:31:56;4.13;;;1.50;;
5343;SDS011;2694;48.954;8.928;2023-08-08T05:34:23;4.40;;;1.50;;
5343;SDS011;2694;48.954;8.928;2023-08-08T05:36:50;2.30;;;1.48;;
5343;SDS011;2694;48.954;8.928;2023-08-08T05:39:18;2.88;;;1.50;;
5343;SDS011;2694;48.954;8.928;2023-08-08T05:41:46;2.80;;;1.20;;
5343;SDS011;2694;48.954;8.928;2023-08-08T05:44:13;3.95;;;1.63;;
5343;SDS011;2694;48.954;8.928;2023-08-08T05:46:40;4.38;;;1.20;;
5343;SDS011;2694;48.954;8.928;2023-08-08T05:49:07;5.97;;;1.40;;
5343;SDS011;2694;48.954;8.928;2023-08-08T05:51:34;5.63;;;1.50;;
5343;SDS011;2694;48.954;8.928;2023-08-08T05:54:01;4.50;;;1.25;;
5343;SDS011;2694;48.954;8.928;2023-08-08T05:56:34;2.80;;;1.00;;
5343;SDS011;2694;48.954;8.928;2023-08-08T05:59:03;3.60;;;1.40;;
5343;SDS011;2694;48.954;8.928;2023-08-08T06:01:30;4.82;;;1.60;;
5343;SDS011;2694;48.954;8.928;2023-08-08T06:03:57;3.92;;;1.25;;
5343;SDS011;2694;48.954;8.928;2023-08-08T06:06:24;3.30;;;1.40;;
5343;SDS011;2694;48.954;8.928;2023-08-08T06:08:52;3.20;;;1.50;;
5343;SDS011;2694;48.954;8.928;2023-08-08T06:11:19;3.30;;;1.30;;
5343;SDS011;2694;48.954;8.928;2023-08-08T06:13:46;2.60;;;1.02;;
5343;SDS011;2694;48.954;8.928;2023-08-08T06:16:15;2.15;;;1.00;;
5343;SDS011;2694;48.954;8.928;2023-08-08T06:18:43;5.22;;;1.20;;
5343;SDS011;2694;48.954;8.928;2023-08-08T06:21:10;2.45;;;0.90;;
5343;SDS011;2694;48.954;8.928;2023-08-08T06:23:37;2.58;;;1.30;;
5343;SDS011;2694;48.954;8.928;2023-08-08T06:26:04;4.07;;;1.30;;
5343;SDS011;2694;48.954;8.928;2023-08-08T06:28:31;4.47;;;1.10;;
5343;SDS011;2694;48.954;8.928;2023-08-08T06:30:58;2.83;;;1.08;;
5343;SDS011;2694;48.954;8.928;2023-08-08T06:33:27;3.90;;;1.00;;
5343;SDS011;2694;48.954;8.928;2023-08-08T06:35:55;2.53;;;1.10;;
5343;SDS011;2694;48.954;8.928;2023-08-08T06:38:22;1.92;;;0.80;;
5343;SDS011;2694;48.954;8.928;2023-08-08T06:40:49;2.50;;;1.10;;
5343;SDS011;2694;48.954;8.928;2023-08-08T06:43:16;2.80;;;1.10;;
5343;SDS011;2694;48.954;8.928;2023-08-08T06:45:43;4.03;;;1.00;;
5343;SDS011;2694;48.954;8.928;2023-08-08T06:48:10;1.85;;;0.70;;
5343;SDS011;2694;48.954;8.928;2023-08-08T06:50:38;3.92;;;0.90;;
5343;SDS011;2694;48.954;8.928;2023-08-08T06:53:05;2.85;;;0.82;;
5343;SDS011;2694;48.954;8.928;2023-08-08T06:55:32;1.95;;;0.90;;
5343;SDS011;2694;48.954;8.928;2023-08-08T06:57:59;1.80;;;0.90;;
5343;SDS011;2694;48.954;8.928;2023-08-08T07:00:26;4.75;;;0.90;;
5343;SDS011;2694;48.954;8.928;2023-08-08T07:02:53;2.80;;;0.82;;
5343;SDS011;2694;48.954;8.928;2023-08-08T07:05:20;1.60;;;0.80;;
5343;SDS011;2694;48.954;8.928;2023-08-08T07:07:50;1.70;;;0.70;;
5343;SDS011;2694;48.954;8.928;2023-08-08T07:10:17;1.63;;;0.70;;
5343;SDS011;2694;48.954;8.928;2023-08-08T07:12:45;3.97;;;0.90;;
5343;SDS011;2694;48.954;8.928;2023-08-08T07:15:12;4.03;;;1.00;;
5343;SDS011;2694;48.954;8.928;2023-08-08T07:17:39;2.03;;;0.90;;
5343;SDS011;2694;48.954;8.928;2023-08-08T07:20:06;1.67;;;0.70;;
5343;SDS011;2694;48.954;8.928;2023-08-08T07:22:34;2.60;;;1.00;;
5343;SDS011;2694;48.954;8.928;2023-08-08T07:25:02;2.70;;;0.77;;
5343;SDS011;2694;48.954;8.928;2023-08-08T07:27:31;1.48;;;0.70;;
5343;SDS011;2694;48.954;8.928;2023-08-08T07:29:57;2.13;;;0.90;;
5343;SDS011;2694;48.954;8.928;2023-08-08T07:32:26;1.95;;;0.80;;
5343;SDS011;2694;48.954;8.928;2023-08-08T07:34:53;2.00;;;0.70;;
5343;SDS011;2694;48.954;8.928;2023-08-08T07:37:20;2.42;;;1.00;;
5343;SDS011;2694;48.954;8.928;2023-08-08T07:39:50;1.83;;;0.80;;
5343;SDS011;2694;48.954;8.928;2023-08-08T07:42:18;4.50;;;0.90;;
5343;SDS011;2694;48.954;8.928;2023-08-08T07:44:45;1.65;;;0.88;;
5343;SDS011;2694;48.954;8.928;2023-08-08T07:47:15;3.60;;;0.93;;
5343;SDS011;2694;48.954;8.928;2023-08-08T07:49:42;7.38;;;1.00;;
5343;SDS011;2694;48.954;8.928;2023-08-08T07:52:09;3.83;;;0.80;;
5343;SDS011;2694;48.954;8.928;2023-08-08T07:54:36;1.90;;;0.80;;
5343;SDS011;2694;48.954;8.928;2023-08-08T07:57:03;2.60;;;1.17;;
5343;SDS011;2694;48.954;8.928;2023-08-08T07:59:32;2.97;;;0.93;;
5343;SDS011;2694;48.954;8.928;2023-08-08T08:01:58;4.30;;;0.80;;
5343;SDS011;2694;48.954;8.928;2023-08-08T08:04:25;2.50;;;0.90;;
5343;SDS011;2694;48.954;8.928;2023-08-08T08:06:52;1.90;;;0.60;;
5343;SDS011;2694;48.954;8.928;2023-08-08T08:09:19;3.03;;;0.70;;
5343;SDS011;2694;48.954;8.928;2023-08-08T08:11:46;1.60;;;0.90;;
5343;SDS011;2694;48.954;8.928;2023-08-08T08:14:13;1.70;;;0.90;;
5343;SDS011;2694;48.954;8.928;2023-08-08T08:16:41;2.30;;;0.90;;
5343;SDS011;2694;48.954;8.928;2023-08-08T08:19:08;6.00;;;0.88;;
5343;SDS011;2694;48.954;8.928;2023-08-08T08:21:35;2.33;;;0.90;;
5343;SDS011;2694;48.954;8.928;2023-08-08T08:24:02;2.63;;;0.70;;
5343;SDS011;2694;48.954;8.928;2023-08-08T08:26:30;5.70;;;1.10;;
5343;SDS011;2694;48.954;8.928;2023-08-08T08:28:58;2.70;;;0.60;;
5343;SDS011;2694;48.954;8.928;2023-08-08T08:31:25;3.20;;;0.77;;
5343;SDS011;2694;48.954;8.928;2023-08-08T08:33:54;3.57;;;0.80;;
5343;SDS011;2694;48.954;8.928;2023-08-08T08:36:21;2.22;;;0.85;;
5343;SDS011;2694;48.954;8.928;2023-08-08T08:38:48;2.30;;;0.80;;
5343;SDS011;2694;48.954;8.928;2023-08-08T08:41:15;1.90;;;0.80;;
5343;SDS011;2694;48.954;8.928;2023-08-08T08:43:45;2.58;;;0.70;;
5343;SDS011;2694;48.954;8.928;2023-08-08T08:46:12;4.80;;;0.90;;
5343;SDS011;2694;48.954;8.928;2023-08-08T08:48:43;5.50;;;0.80;;
5343;SDS011;2694;48.954;8.928;2023-08-08T08:51:12;3.35;;;0.85;;
5343;SDS011;2694;48.954;8.928;2023-08-08T08:53:40;3.10;;;0.60;;
5343;SDS011;2694;48.954;8.928;2023-08-08T08:56:08;3.17;;;0.88;;
5343;SDS011;2694;48.954;8.928;2023-08-08T08:58:35;2.05;;;0.80;;
5343;SDS011;2694;48.954;8.928;2023-08-08T09:01:02;3.00;;;0.77;;
5343;SDS011;2694;48.954;8.928;2023-08-08T09:03:29;1.60;;;0.70;;
5343;SDS011;2694;48.954;8.928;2023-08-08T09:05:56;4.65;;;0.85;;
5343;SDS011;2694;48.954;8.928;2023-08-08T09:08:26;4.07;;;0.70;;
5343;SDS011;2694;48.954;8.928;2023-08-08T09:10:53;2.65;;;0.80;;
5343;SDS011;2694;48.954;8.928;2023-08-08T09:13:21;2.63;;;0.85;;
5343;SDS011;2694;48.954;8.928;2023-08-08T09:15:51;2.40;;;0.90;;
5343;SDS011;2694;48.954;8.928;2023-08-08T09:18:18;3.05;;;0.65;;
5343;SDS011;2694;48.954;8.928;2023-08-08T09:20:48;2.70;;;0.90;;
5343;SDS011;2694;48.954;8.928;2023-08-08T09:23:15;2.33;;;1.00;;
5343;SDS011;2694;48.954;8.928;2023-08-08T09:25:44;2.42;;;0.70;;
5343;SDS011;2694;48.954;8.928;2023-08-08T09:28:11;2.60;;;1.00;;
5343;SDS011;2694;48.954;8.928;2023-08-08T09:30:38;2.20;;;0.70;;
5343;SDS011;2694;48.954;8.928;2023-08-08T09:33:05;2.38;;;0.70;;
5343;SDS011;2694;48.954;8.928;2023-08-08T09:35:32;3.13;;;0.80;;
5343;SDS011;2694;48.954;8.928;2023-08-08T09:37:59;3.20;;;0.70;;
5343;SDS011;2694;48.954;8.928;2023-08-08T09:40:27;2.53;;;0.73;;
5343;SDS011;2694;48.954;8.928;2023-08-08T09:42:55;2.83;;;0.80;;
5343;SDS011;2694;48.954;8.928;2023-08-08T09:45:23;3.03;;;0.80;;
5343;SDS011;2694;48.954;8.928;2023-08-08T09:47:50;2.80;;;0.70;;
5343;SDS011;2694;48.954;8.928;2023-08-08T09:50:18;1.92;;;0.70;;
5343;SDS011;2694;48.954;8.928;2023-08-08T09:52:46;1.45;;;0.50;;
5343;SDS011;2694;48.954;8.928;2023-08-08T09:55:14;2.80;;;0.70;;
5343;SDS011;2694;48.954;8.928;2023-08-08T09:57:41;2.80;;;1.10;;
5343;SDS011;2694;48.954;8.928;2023-08-08T10:00:10;2.63;;;0.63;;
5343;SDS011;2694;48.954;8.928;2023-08-08T10:02:41;1.70;;;0.70;;
5343;SDS011;2694;48.954;8.928;2023-08-08T10:05:09;2.80;;;0.60;;
5343;SDS011;2694;48.954;8.928;2023-08-08T10:07:38;2.60;;;1.00;;
5343;SDS011;2694;48.954;8.928;2023-08-08T10:10:06;3.78;;;0.60;;
5343;SDS011;2694;48.954;8.928;2023-08-08T10:12:36;2.50;;;0.80;;
5343;SDS011;2694;48.954;8.928;2023-08-08T10:15:04;2.30;;;0.80;;
5343;SDS011;2694;48.954;8.928;2023-08-08T10:17:36;2.38;;;0.70;;
5343;SDS011;2694;48.954;8.928;2023-08-08T10:20:04;2.20;;;0.70;;
5343;SDS011;2694;48.954;8.928;2023-08-08T10:22:36;2.15;;;0.70;;
5343;SDS011;2694;48.954;8.928;2023-08-08T10:25:05;3.90;;;0.80;;
5343;SDS011;2694;48.954;8.928;2023-08-08T10:27:33;2.72;;;0.90;;
5343;SDS011;2694;48.954;8.928;2023-08-08T10:30:03;1.50;;;0.60;;
5343;SDS011;2694;48.954;8.928;2023-08-08T10:32:39;1.15;;;0.50;;
5343;SDS011;2694;48.954;8.928;2023-08-08T10:35:06;1.70;;;0.70;;
5343;SDS011;2694;48.954;8.928;2023-08-08T10:37:35;4.05;;;0.75;;
5343;SDS011;2694;48.954;8.928;2023-08-08T10:40:03;2.03;;;0.80;;
5343;SDS011;2694;48.954;8.928;2023-08-08T10:42:32;2.90;;;0.80;;
5343;SDS011;2694;48.954;8.928;2023-08-08T10:45:09;3.00;;;0.82;;
5343;SDS011;2694;48.954;8.928;2023-08-08T10:47:39;2.10;;;1.00;;
5343;SDS011;2694;48.954;8.928;2023-08-08T10:50:07;3.03;;;1.00;;
5343;SDS011;2694;48.954;8.928;2023-08-08T10:52:55;2.60;;;1.05;;
5343;SDS011;2694;48.954;8.928;2023-08-08T10:55:23;4.50;;;1.00;;
5343;SDS011;2694;48.954;8.928;2023-08-08T10:57:58;2.03;;;0.60;;
5343;SDS011;2694;48.954;8.928;2023-08-08T11:00:31;1.70;;;0.80;;
5343;SDS011;2694;48.954;8.928;2023-08-08T11:03:00;1.80;;;0.70;;
5343;SDS011;2694;48.954;8.928;2023-08-08T11:05:29;3.13;;;0.80;;
5343;SDS011;2694;48.954;8.928;2023-08-08T11:07:57;1.98;;;0.90;;
5343;SDS011;2694;48.954;8.928;2023-08-08T11:10:24;2.47;;;0.98;;
5343;SDS011;2694;48.954;8.928;2023-08-08T11:12:56;2.15;;;0.80;;
5343;SDS011;2694;48.954;8.928;2023-08-08T11:15:25;3.28;;;1.23;;
5343;SDS011;2694;48.954;8.928;2023-08-08T11:17:53;1.50;;;0.73;;
5343;SDS011;2694;48.954;8.928;2023-08-08T11:20:22;2.80;;;0.80;;
5343;SDS011;2694;48.954;8.928;2023-08-08T11:22:52;2.60;;;0.98;;
5343;SDS011;2694;48.954;8.928;2023-08-08T11:25:20;2.20;;;0.80;;
5343;SDS011;2694;48.954;8.928;2023-08-08T11:27:50;3.83;;;0.80;;
5343;SDS011;2694;48.954;8.928;2023-08-08T11:30:18;3.40;;;0.80;;
5343;SDS011;2694;48.954;8.928;2023-08-08T11:32:46;3.20;;;0.90;;
5343;SDS011;2694;48.954;8.928;2023-08-08T11:35:15;12.88;;;3.55;;
5343;SDS011;2694;48.954;8.928;2023-08-08T11:37:44;6.10;;;2.03;;
5343;SDS011;2694;48.954;8.928;2023-08-08T11:40:12;4.22;;;0.95;;
5343;SDS011;2694;48.954;8.928;2023-08-08T11:42:41;4.70;;;1.20;;
5343;SDS011;2694;48.954;8.928;2023-08-08T11:45:10;1.65;;;0.80;;
5343;SDS011;2694;48.954;8.928;2023-08-08T11:47:38;3.08;;;1.00;;
5343;SDS011;2694;48.954;8.928;2023-08-08T11:50:06;2.93;;;0.80;;
5343;SDS011;2694;48.954;8.928;2023-08-08T11:52:34;2.75;;;1.00;;
5343;SDS011;2694;48.954;8.928;2023-08-08T11:55:07;1.92;;;0.80;;
5343;SDS011;2694;48.954;8.928;2023-08-08T11:57:35;1.70;;;0.70;;
5343;SDS011;2694;48.954;8.928;2023-08-08T12:00:03;1.90;;;0.60;;
5343;SDS011;2694;48.954;8.928;2023-08-08T12:02:32;3.47;;;0.90;;
5343;SDS011;2694;48.954;8.928;2023-08-08T12:05:03;2.35;;;0.80;;
5343;SDS011;2694;48.954;8.928;2023-08-08T12:07:31;2.75;;;0.60;;
5343;SDS011;2694;48.954;8.928;2023-08-08T12:09:59;1.65;;;0.70;;
5343;SDS011;2694;48.954;8.928;2023-08-08T12:12:28;1.80;;;0.70;;
5343;SDS011;2694;48.954;8.928;2023-08-08T12:14:56;1.80;;;0.70;;
5343;SDS011;2694;48.954;8.928;2023-08-08T12:17:23;3.30;;;0.70;;
5343;SDS011;2694;48.954;8.928;2023-08-08T12:19:50;2.93;;;0.87;;
5343;SDS011;2694;48.954;8.928;2023-08-08T12:22:17;3.38;;;0.90;;
5343;SDS011;2694;48.954;8.928;2023-08-08T12:24:44;1.80;;;0.57;;
5343;SDS011;2694;48.954;8.928;2023-08-08T12:27:11;2.35;;;0.70;;
5343;SDS011;2694;48.954;8.928;2023-08-08T12:29:39;2.83;;;0.80;;
5343;SDS011;2694;48.954;8.928;2023-08-08T12:32:06;2.20;;;0.50;;
5343;SDS011;2694;48.954;8.928;2023-08-08T12:34:34;5.72;;;0.90;;
5343;SDS011;2694;48.954;8.928;2023-08-08T12:37:01;2.40;;;0.70;;
5343;SDS011;2694;48.954;8.928;2023-08-08T12:39:28;1.93;;;0.73;;
5343;SDS011;2694;48.954;8.928;2023-08-08T12:41:55;3.42;;;0.60;;
5343;SDS011;2694;48.954;8.928;2023-08-08T12:44:22;1.60;;;0.60;;
5343;SDS011;2694;48.954;8.928;2023-08-08T12:46:51;2.58;;;0.80;;
5343;SDS011;2694;48.954;8.928;2023-08-08T12:49:18;2.10;;;0.77;;
5343;SDS011;2694;48.954;8.928;2023-08-08T12:51:45;3.03;;;0.80;;
5343;SDS011;2694;48.954;8.928;2023-08-08T12:54:14;2.83;;;0.80;;
5343;SDS011;2694;48.954;8.928;2023-08-08T12:56:41;3.75;;;0.80;;
5343;SDS011;2694;48.954;8.928;2023-08-08T12:59:08;2.28;;;0.60;;
5343;SDS011;2694;48.954;8.928;2023-08-08T13:01:35;2.28;;;0.90;;
5343;SDS011;2694;48.954;8.928;2023-08-08T13:04:04;2.88;;;0.70;;
5343;SDS011;2694;48.954;8.928;2023-08-08T13:06:31;2.30;;;0.90;;
5343;SDS011;2694;48.954;8.928;2023-08-08T13:08:59;2.97;;;0.73;;
5343;SDS011;2694;48.954;8.928;2023-08-08T13:11:26;2.40;;;0.77;;
5343;SDS011;2694;48.954;8.928;2023-08-08T13:13:54;1.70;;;0.80;;
5343;SDS011;2694;48.954;8.928;2023-08-08T13:16:21;3.03;;;0.77;;
5343;SDS011;2694;48.954;8.928;2023-08-08T13:18:48;2.50;;;0.85;;
5343;SDS011;2694;48.954;8.928;2023-08-08T13:21:17;3.30;;;0.65;;
5343;SDS011;2694;48.954;8.928;2023-08-08T13:23:44;2.20;;;0.70;;
5343;SDS011;2694;48.954;8.928;2023-08-08T13:26:11;3.10;;;0.90;;
5343;SDS011;2694;48.954;8.928;2023-08-08T13:28:38;3.75;;;0.80;;
5343;SDS011;2694;48.954;8.928;2023-08-08T13:31:05;4.53;;;0.95;;
5343;SDS011;2694;48.954;8.928;2023-08-08T13:33:33;3.10;;;0.80;;
5343;SDS011;2694;48.954;8.928;2023-08-08T13:36:00;1.20;;;0.70;;
5343;SDS011;2694;48.954;8.928;2023-08-08T13:38:29;2.13;;;0.70;;
5343;SDS011;2694;48.954;8.928;2023-08-08T13:40:56;2.00;;;0.90;;
5343;SDS011;2694;48.954;8.928;2023-08-08T13:43:23;3.10;;;0.60;;
5343;SDS011;2694;48.954;8.928;2023-08-08T13:45:50;3.53;;;0.83;;
5343;SDS011;2694;48.954;8.928;2023-08-08T13:48:16;2.17;;;0.90;;
5343;SDS011;2694;48.954;8.928;2023-08-08T13:50:43;3.40;;;0.70;;
5343;SDS011;2694;48.954;8.928;2023-08-08T13:53:10;2.70;;;0.90;;
5343;SDS011;2694;48.954;8.928;2023-08-08T13:55:39;2.70;;;0.80;;
5343;SDS011;2694;48.954;8.928;2023-08-08T13:58:06;3.58;;;0.80;;
5343;SDS011;2694;48.954;8.928;2023-08-08T14:00:35;3.65;;;0.70;;
5343;SDS011;2694;48.954;8.928;2023-08-08T14:03:03;2.13;;;0.70;;
5343;SDS011;2694;48.954;8.928;2023-08-08T14:05:31;1.50;;;0.70;;
5343;SDS011;2694;48.954;8.928;2023-08-08T14:07:58;1.40;;;0.60;;
5343;SDS011;2694;48.954;8.928;2023-08-08T14:10:25;1.90;;;0.75;;
5343;SDS011;2694;48.954;8.928;2023-08-08T14:12:53;4.20;;;0.90;;
5343;SDS011;2694;48.954;8.928;2023-08-08T14:15:21;3.05;;;0.70;;
5343;SDS011;2694;48.954;8.928;2023-08-08T14:17:48;2.63;;;0.70;;
5343;SDS011;2694;48.954;8.928;2023-08-08T14:20:15;4.93;;;1.00;;
5343;SDS011;2694;48.954;8.928;2023-08-08T14:22:44;6.05;;;1.00;;
5343;SDS011;2694;48.954;8.928;2023-08-08T14:25:12;3.05;;;0.70;;
5343;SDS011;2694;48.954;8.928;2023-08-08T14:27:39;3.60;;;1.10;;
5343;SDS011;2694;48.954;8.928;2023-08-08T14:30:08;3.00;;;0.90;;
5343;SDS011;2694;48.954;8.928;2023-08-08T14:32:35;1.70;;;0.70;;
5343;SDS011;2694;48.954;8.928;2023-08-08T14:35:02;4.80;;;0.80;;
5343;SDS011;2694;48.954;8.928;2023-08-08T14:37:30;3.47;;;0.60;;
5343;SDS011;2694;48.954;8.928;2023-08-08T14:39:57;1.60;;;0.60;;
5343;SDS011;2694;48.954;8.928;2023-08-08T14:42:24;1.87;;;0.60;;
5343;SDS011;2694;48.954;8.928;2023-08-08T14:44:51;1.50;;;0.70;;
5343;SDS011;2694;48.954;8.928;2023-08-08T14:47:19;2.60;;;0.77;;
5343;SDS011;2694;48.954;8.928;2023-08-08T14:49:46;3.95;;;1.10;;
5343;SDS011;2694;48.954;8.928;2023-08-08T14:52:15;2.20;;;0.73;;
5343;SDS011;2694;48.954;8.928;2023-08-08T14:54:42;2.10;;;0.85;;
5343;SDS011;2694;48.954;8.928;2023-08-08T14:57:09;3.90;;;0.80;;
5343;SDS011;2694;48.954;8.928;2023-08-08T14:59:36;3.45;;;0.65;;
5343;SDS011;2694;48.954;8.928;2023-08-08T15:02:03;1.55;;;0.60;;
5343;SDS011;2694;48.954;8.928;2023-08-08T15:04:32;2.97;;;0.80;;
5343;SDS011;2694;48.954;8.928;2023-08-08T15:06:59;4.45;;;1.42;;
5343;SDS011;2694;48.954;8.928;2023-08-08T15:09:26;2.15;;;0.80;;
5343;SDS011;2694;48.954;8.928;2023-08-08T15:11:54;2.13;;;0.77;;
5343;SDS011;2694;48.954;8.928;2023-08-08T15:14:21;2.60;;;0.80;;
5343;SDS011;2694;48.954;8.928;2023-08-08T15:16:48;2.20;;;0.80;;
5343;SDS011;2694;48.954;8.928;2023-08-08T15:19:15;4.05;;;0.80;;